createdAt,value
2017-10-08T00:00:49.583Z,5.53
2017-10-08T00:03:17.131Z,5.87
2017-10-08T00:05:44.654Z,6.20
2017-10-08T00:08:12.188Z,5.50
2017-10-08T00:10:39.751Z,6.43
2017-10-08T00:13:07.275Z,5.20
2017-10-08T00:15:34.803Z,6.27
2017-10-08T00:18:02.687Z,5.70
2017-10-08T00:20:30.216Z,5.80
2017-10-08T00:22:57.747Z,5.90
2017-10-08T00:25:26.074Z,5.90
2017-10-08T00:27:53.598Z,5.73
2017-10-08T00:30:21.896Z,6.60
2017-10-08T00:32:49.447Z,5.40
2017-10-08T00:35:16.974Z,6.77
2017-10-08T00:37:44.502Z,5.55
2017-10-08T00:40:12.075Z,5.30
2017-10-08T00:42:39.609Z,5.13
2017-10-08T00:45:07.144Z,5.37
2017-10-08T00:47:34.717Z,5.40
2017-10-08T00:50:02.251Z,5.77
2017-10-08T00:52:31.135Z,5.60
2017-10-08T00:54:58.691Z,5.67
2017-10-08T00:57:26.978Z,6.17
2017-10-08T00:59:54.511Z,6.50
2017-10-08T01:02:22.087Z,5.83
2017-10-08T01:04:49.615Z,6.97
2017-10-08T01:07:17.138Z,6.30
2017-10-08T01:09:44.708Z,6.67
2017-10-08T01:12:12.240Z,6.50
2017-10-08T01:14:39.780Z,5.93
2017-10-08T01:17:07.364Z,6.40
2017-10-08T01:19:35.655Z,6.77
2017-10-08T01:22:03.179Z,6.63
2017-10-08T01:24:31.540Z,7.70
2017-10-08T01:26:59.063Z,5.53
2017-10-08T01:29:26.596Z,5.53
2017-10-08T01:31:54.160Z,5.80
2017-10-08T01:34:21.687Z,5.93
2017-10-08T01:36:49.211Z,5.30
2017-10-08T01:39:16.767Z,5.80
2017-10-08T01:41:44.296Z,5.23
2017-10-08T01:44:11.827Z,5.90
2017-10-08T01:46:39.398Z,4.95
2017-10-08T01:49:07.682Z,4.93
2017-10-08T01:51:35.985Z,4.40
2017-10-08T01:54:04.052Z,4.30
2017-10-08T01:56:31.575Z,3.33
2017-10-08T01:58:59.098Z,3.40
2017-10-08T02:01:26.659Z,3.53
2017-10-08T02:03:54.179Z,3.90
2017-10-08T02:06:21.699Z,3.25
2017-10-08T02:08:49.270Z,2.40
2017-10-08T02:11:16.791Z,2.70
2017-10-08T02:13:44.329Z,2.30
2017-10-08T02:16:11.879Z,2.50
2017-10-08T02:18:39.416Z,2.55
2017-10-08T02:21:06.948Z,2.07
2017-10-08T02:23:34.495Z,2.13
2017-10-08T02:26:02.020Z,2.33
2017-10-08T02:28:29.547Z,2.00
2017-10-08T02:30:57.133Z,1.83
2017-10-08T02:33:24.667Z,2.33
2017-10-08T02:35:52.967Z,2.40
2017-10-08T02:38:20.528Z,2.03
2017-10-08T02:40:48.059Z,2.60
2017-10-08T02:43:16.371Z,2.50
2017-10-08T02:45:43.926Z,3.23
2017-10-08T02:48:11.448Z,2.70
2017-10-08T02:50:38.971Z,2.87
2017-10-08T02:53:06.556Z,3.03
2017-10-08T02:55:34.218Z,3.17
2017-10-08T02:58:01.734Z,2.77
2017-10-08T03:00:29.288Z,3.03
2017-10-08T03:02:56.832Z,2.50
2017-10-08T03:05:25.128Z,2.67
2017-10-08T03:07:52.674Z,2.40
2017-10-08T03:10:20.967Z,2.20
2017-10-08T03:12:48.503Z,2.03
2017-10-08T03:15:16.587Z,2.00
2017-10-08T03:17:44.119Z,1.60
2017-10-08T03:20:11.647Z,1.90
2017-10-08T03:22:39.207Z,1.53
2017-10-08T03:25:06.731Z,2.13
2017-10-08T03:27:34.251Z,1.50
2017-10-08T03:30:01.791Z,1.50
2017-10-08T03:32:29.323Z,1.70
2017-10-08T03:34:56.848Z,1.60
2017-10-08T03:37:24.433Z,1.50
2017-10-08T03:39:51.968Z,1.37
2017-10-08T03:42:19.495Z,1.15
2017-10-08T03:44:47.034Z,1.20
2017-10-08T03:47:16.379Z,1.30
2017-10-08T03:49:44.671Z,1.13
2017-10-08T03:52:13.915Z,1.10
2017-10-08T03:54:41.448Z,1.30
2017-10-08T03:57:09.194Z,1.67
2017-10-08T03:59:36.771Z,1.50
2017-10-08T04:02:04.304Z,1.10
2017-10-08T04:04:31.827Z,1.57
2017-10-08T04:06:59.379Z,1.40
2017-10-08T04:09:26.912Z,1.30
2017-10-08T04:11:54.439Z,1.50
2017-10-08T04:14:22.763Z,1.70
2017-10-08T04:16:50.296Z,1.70
2017-10-08T04:19:17.823Z,1.50
2017-10-08T04:21:45.407Z,1.70
2017-10-08T04:24:14.551Z,1.12
2017-10-08T04:26:42.080Z,1.30
2017-10-08T04:29:09.623Z,1.90
2017-10-08T04:31:37.915Z,1.43
2017-10-08T04:34:05.471Z,1.58
2017-10-08T04:36:33.024Z,1.75
2017-10-08T04:39:00.542Z,1.63
2017-10-08T04:41:28.069Z,1.70
2017-10-08T04:43:56.460Z,1.60
2017-10-08T04:46:24.751Z,1.40
2017-10-08T04:48:52.368Z,1.50
2017-10-08T04:51:19.933Z,1.70
2017-10-08T04:53:47.470Z,1.48
2017-10-08T04:56:16.407Z,1.80
2017-10-08T04:58:44.220Z,1.53
2017-10-08T05:01:11.855Z,1.47
2017-10-08T05:03:39.388Z,1.85
2017-10-08T05:06:07.072Z,1.70
2017-10-08T05:08:34.631Z,1.80
2017-10-08T05:11:02.173Z,1.50
2017-10-08T05:13:29.753Z,2.10
2017-10-08T05:15:57.311Z,1.57
2017-10-08T05:18:24.835Z,1.73
2017-10-08T05:20:52.391Z,1.53
2017-10-08T05:23:19.915Z,1.73
2017-10-08T05:25:47.508Z,1.97
2017-10-08T05:28:16.407Z,1.75
2017-10-08T05:30:43.944Z,2.40
2017-10-08T05:33:11.475Z,2.65
2017-10-08T05:35:39.190Z,2.53
2017-10-08T05:38:06.728Z,2.13
2017-10-08T05:40:34.276Z,2.70
2017-10-08T05:43:01.835Z,2.97
2017-10-08T05:45:29.359Z,2.93
2017-10-08T05:47:56.922Z,2.40
2017-10-08T05:50:25.372Z,2.67
2017-10-08T05:52:52.935Z,2.43
2017-10-08T05:55:20.513Z,2.54
2017-10-08T05:57:48.081Z,2.40
2017-10-08T06:00:17.132Z,2.58
2017-10-08T06:02:44.659Z,2.40
2017-10-08T06:05:12.207Z,2.50
2017-10-08T06:07:39.727Z,2.00
2017-10-08T06:10:07.243Z,2.30
2017-10-08T06:12:34.820Z,2.30
2017-10-08T06:15:03.102Z,2.40
2017-10-08T06:17:30.623Z,2.70
2017-10-08T06:19:58.167Z,2.80
2017-10-08T06:22:25.687Z,2.90
2017-10-08T06:24:53.216Z,3.30
2017-10-08T06:27:20.784Z,2.60
2017-10-08T06:29:49.071Z,2.50
2017-10-08T06:32:16.596Z,2.30
2017-10-08T06:34:44.175Z,2.10
2017-10-08T06:37:11.700Z,2.90
2017-10-08T06:39:39.243Z,2.63
2017-10-08T06:42:06.807Z,2.20
2017-10-08T06:44:34.332Z,2.50
2017-10-08T06:47:02.627Z,2.60
2017-10-08T06:49:30.174Z,2.20
2017-10-08T06:51:57.699Z,2.60
2017-10-08T06:54:25.226Z,2.80
2017-10-08T06:56:52.795Z,4.73
2017-10-08T06:59:20.314Z,2.42
2017-10-08T07:01:47.971Z,2.30
2017-10-08T07:04:16.419Z,2.27
2017-10-08T07:06:44.458Z,2.87
2017-10-08T07:09:12.008Z,3.63
2017-10-08T07:11:39.551Z,2.80
2017-10-08T07:14:07.075Z,5.90
2017-10-08T07:16:34.600Z,2.63
2017-10-08T07:19:02.196Z,3.00
2017-10-08T07:21:29.719Z,2.30
2017-10-08T07:23:57.252Z,2.40
2017-10-08T07:26:24.814Z,2.60
2017-10-08T07:28:52.334Z,2.70
2017-10-08T07:31:19.856Z,2.40
2017-10-08T07:33:48.171Z,3.55
2017-10-08T07:36:16.411Z,2.70
2017-10-08T07:38:43.947Z,2.20
2017-10-08T07:41:11.540Z,2.20
2017-10-08T07:43:39.059Z,2.40
2017-10-08T07:46:06.680Z,2.33
2017-10-08T07:48:34.436Z,2.40
2017-10-08T07:51:01.956Z,2.33
2017-10-08T07:53:29.470Z,2.83
2017-10-08T07:55:57.043Z,2.53
2017-10-08T07:58:25.343Z,2.63
2017-10-08T08:00:52.871Z,2.70
2017-10-08T08:03:21.041Z,2.60
2017-10-08T08:05:48.566Z,2.43
2017-10-08T08:08:16.443Z,2.37
2017-10-08T08:10:43.990Z,2.60
2017-10-08T08:13:11.524Z,2.47
2017-10-08T08:15:39.051Z,2.87
2017-10-08T08:18:07.368Z,2.90
2017-10-08T08:20:34.886Z,2.33
2017-10-08T08:23:03.186Z,2.65
2017-10-08T08:25:30.806Z,2.47
2017-10-08T08:27:58.907Z,2.30
2017-10-08T08:30:26.780Z,2.22
2017-10-08T08:32:54.423Z,2.13
2017-10-08T08:37:55.124Z,2.60
2017-10-08T08:40:23.680Z,2.40
2017-10-08T08:42:51.295Z,2.47
2017-10-08T08:45:19.587Z,2.20
2017-10-08T08:47:47.282Z,2.50
2017-10-08T08:50:16.705Z,2.80
2017-10-08T08:52:44.290Z,2.70
2017-10-08T08:55:11.878Z,3.00
2017-10-08T08:57:39.484Z,2.63
2017-10-08T09:00:07.115Z,2.37
2017-10-08T09:02:35.471Z,2.60
2017-10-08T09:05:04.422Z,2.73
2017-10-08T09:07:32.086Z,2.40
2017-10-08T09:10:00.771Z,2.30
2017-10-08T09:12:28.359Z,2.20
2017-10-08T09:14:56.179Z,2.30
2017-10-08T09:17:24.056Z,2.20
2017-10-08T09:19:51.639Z,3.30
2017-10-08T09:22:19.239Z,3.13
2017-10-08T09:24:46.804Z,3.47
2017-10-08T09:27:16.359Z,2.40
2017-10-08T09:29:44.008Z,3.83
2017-10-08T09:32:11.606Z,3.60
2017-10-08T09:34:39.162Z,2.57
2017-10-08T09:37:06.725Z,2.70
2017-10-08T09:39:34.317Z,2.70
2017-10-08T09:42:01.925Z,2.67
2017-10-08T09:44:29.516Z,2.77
2017-10-08T09:46:57.044Z,3.20
2017-10-08T09:49:25.355Z,3.27
2017-10-08T09:51:52.947Z,3.83
2017-10-08T09:54:21.260Z,4.37
2017-10-08T09:56:48.855Z,3.50
2017-10-08T09:59:17.746Z,2.90
2017-10-08T10:01:49.017Z,3.50
2017-10-08T10:04:16.983Z,3.80
2017-10-08T10:06:45.568Z,3.22
2017-10-08T10:09:14.631Z,2.60
2017-10-08T10:11:43.689Z,3.67
2017-10-08T10:14:11.287Z,2.60
2017-10-08T10:16:39.788Z,2.67
2017-10-08T10:19:07.315Z,2.80
2017-10-08T10:21:34.892Z,2.40
2017-10-08T10:24:02.436Z,2.50
2017-10-08T10:26:30.726Z,3.07
2017-10-08T10:28:58.284Z,2.83
2017-10-08T10:31:27.012Z,2.60
2017-10-08T10:33:55.306Z,3.10
2017-10-08T10:36:22.926Z,2.43
2017-10-08T10:38:50.467Z,2.53
2017-10-08T10:41:18.000Z,2.30
2017-10-08T10:43:45.556Z,2.40
2017-10-08T10:46:14.578Z,2.40
2017-10-08T10:48:42.109Z,2.73
2017-10-08T10:51:09.666Z,2.13
2017-10-08T10:53:37.200Z,4.00
2017-10-08T10:56:05.511Z,3.60
2017-10-08T10:58:33.087Z,3.67
2017-10-08T11:01:00.623Z,2.50
2017-10-08T11:03:28.155Z,3.00
2017-10-08T11:05:55.711Z,4.40
2017-10-08T11:08:24.616Z,3.53
2017-10-08T11:10:52.151Z,2.77
2017-10-08T11:13:19.711Z,3.20
2017-10-08T11:15:47.235Z,2.87
2017-10-08T11:18:16.451Z,3.10
2017-10-08T11:20:44.039Z,2.30
2017-10-08T11:23:11.583Z,2.40
2017-10-08T11:25:39.111Z,2.17
2017-10-08T11:28:06.656Z,3.70
2017-10-08T11:30:34.178Z,2.80
2017-10-08T11:33:02.463Z,2.50
2017-10-08T11:35:30.020Z,4.80
2017-10-08T11:37:58.310Z,6.10
2017-10-08T11:40:25.889Z,3.87
2017-10-08T11:42:53.704Z,24.63
2017-10-08T11:45:21.230Z,3.00
2017-10-08T11:47:49.544Z,4.00
2017-10-08T11:50:21.905Z,2.88
2017-10-08T11:52:49.443Z,3.58
2017-10-08T11:55:16.975Z,2.70
2017-10-08T11:57:44.551Z,3.60
2017-10-08T12:00:12.084Z,4.57
2017-10-08T12:02:40.380Z,4.40
2017-10-08T12:05:07.980Z,2.37
2017-10-08T12:07:35.503Z,3.50
2017-10-08T12:10:03.372Z,4.40
2017-10-08T12:12:31.937Z,5.37
2017-10-08T12:14:59.475Z,2.73
2017-10-08T12:17:28.636Z,3.03
2017-10-08T12:19:56.193Z,3.10
2017-10-08T12:22:23.723Z,3.40
2017-10-08T12:24:51.253Z,3.13
2017-10-08T12:27:19.631Z,2.60
2017-10-08T12:29:47.964Z,2.90
2017-10-08T12:32:16.391Z,4.10
2017-10-08T12:34:45.062Z,3.30
2017-10-08T12:37:14.445Z,2.90
2017-10-08T12:39:42.004Z,4.43
2017-10-08T12:42:09.586Z,5.50
2017-10-08T12:44:37.140Z,8.53
2017-10-08T12:47:08.551Z,5.30
2017-10-08T12:49:36.136Z,5.20
2017-10-08T12:52:03.700Z,5.47
2017-10-08T12:54:34.899Z,4.33
2017-10-08T12:57:02.451Z,4.35
2017-10-08T12:59:29.991Z,3.97
2017-10-08T13:01:57.609Z,4.33
2017-10-08T13:04:25.341Z,3.60
2017-10-08T13:06:54.004Z,3.50
2017-10-08T13:09:21.714Z,3.64
2017-10-08T13:11:49.496Z,4.40
2017-10-08T13:14:17.105Z,4.20
2017-10-08T13:16:45.107Z,4.40
2017-10-08T13:19:13.665Z,5.57
2017-10-08T13:21:46.259Z,4.55
2017-10-08T13:24:25.302Z,3.70
2017-10-08T13:30:45.443Z,3.20
2017-10-08T13:33:31.296Z,3.40
2017-10-08T13:40:44.858Z,3.47
2017-10-08T13:43:19.063Z,3.60
2017-10-08T13:45:47.680Z,3.03
2017-10-08T13:48:16.487Z,3.20
2017-10-08T13:50:44.094Z,5.50
2017-10-08T13:53:16.188Z,5.50
2017-10-08T13:55:43.798Z,6.90
2017-10-08T13:58:11.415Z,6.33
2017-10-08T14:00:58.533Z,7.50
2017-10-08T14:06:09.488Z,4.77
2017-10-08T14:08:38.541Z,4.60
2017-10-08T14:11:06.167Z,3.93
2017-10-08T14:13:37.167Z,5.03
2017-10-08T14:16:06.432Z,3.47
2017-10-08T14:18:34.060Z,3.30
2017-10-08T14:21:03.099Z,4.32
2017-10-08T14:23:38.789Z,3.40
2017-10-08T14:26:11.169Z,3.40
2017-10-08T14:28:40.611Z,5.80
2017-10-08T14:31:08.265Z,6.27
2017-10-08T14:33:41.650Z,4.25
2017-10-08T14:36:10.040Z,3.10
2017-10-08T14:38:37.659Z,3.63
2017-10-08T14:41:06.616Z,2.57
2017-10-08T14:43:34.155Z,3.50
2017-10-08T14:46:01.683Z,2.50
2017-10-08T14:48:29.234Z,2.97
2017-10-08T14:50:56.763Z,3.50
2017-10-08T14:53:24.287Z,4.40
2017-10-08T14:55:52.143Z,3.63
2017-10-08T14:58:19.795Z,4.53
2017-10-08T15:00:47.601Z,4.53
2017-10-08T15:03:16.325Z,3.47
2017-10-08T15:05:43.896Z,5.80
2017-10-08T15:08:11.440Z,3.50
2017-10-08T15:10:39.811Z,3.77
2017-10-08T15:13:07.357Z,9.10
2017-10-08T15:15:35.478Z,10.85
2017-10-08T15:18:03.862Z,7.40
2017-10-08T15:20:32.235Z,3.13
2017-10-08T15:22:59.871Z,3.80
2017-10-08T15:25:28.411Z,2.60
2017-10-08T15:27:55.938Z,3.33
2017-10-08T15:30:23.471Z,3.25
2017-10-08T15:32:51.027Z,3.97
2017-10-08T15:35:18.587Z,3.65
2017-10-08T15:37:49.710Z,3.90
2017-10-08T15:40:22.237Z,4.00
2017-10-08T15:42:56.575Z,3.20
2017-10-08T15:45:24.643Z,3.43
2017-10-08T15:47:52.224Z,4.50
2017-10-08T15:50:19.804Z,7.53
2017-10-08T15:52:47.451Z,6.63
2017-10-08T15:55:15.543Z,3.65
2017-10-08T15:57:43.071Z,3.80
2017-10-08T16:00:10.764Z,4.57
2017-10-08T16:02:38.588Z,3.43
2017-10-08T16:05:06.150Z,3.87
2017-10-08T16:07:33.788Z,4.30
2017-10-08T16:10:01.368Z,8.73
2017-10-08T16:12:29.534Z,7.03
2017-10-08T16:14:57.172Z,7.20
2017-10-08T16:17:25.240Z,4.40
2017-10-08T16:19:52.770Z,6.53
2017-10-08T16:22:20.322Z,5.90
2017-10-08T16:24:50.822Z,6.30
2017-10-08T16:27:19.236Z,7.13
2017-10-08T16:29:47.236Z,6.87
2017-10-08T16:32:15.586Z,4.30
2017-10-08T16:34:43.466Z,5.17
2017-10-08T16:37:11.824Z,4.20
2017-10-08T16:39:39.379Z,4.03
2017-10-08T16:42:07.052Z,3.80
2017-10-08T16:44:34.688Z,3.83
2017-10-08T16:47:02.227Z,3.70
2017-10-08T16:49:29.759Z,4.30
2017-10-08T16:51:58.143Z,3.83
2017-10-08T16:54:25.748Z,5.00
2017-10-08T16:56:57.495Z,4.40
2017-10-08T16:59:25.823Z,4.80
2017-10-08T17:01:56.813Z,4.97
2017-10-08T17:04:25.599Z,5.40
2017-10-08T17:06:53.342Z,6.10
2017-10-08T17:09:23.525Z,6.00
2017-10-08T17:11:52.806Z,5.93
2017-10-08T17:14:20.488Z,5.30
2017-10-08T17:21:45.880Z,7.97
2017-10-08T17:24:25.053Z,6.45
2017-10-08T17:29:31.291Z,9.63
2017-10-08T17:31:58.828Z,5.70
2017-10-08T17:34:27.166Z,6.57
2017-10-08T17:36:55.539Z,6.17
2017-10-08T17:39:23.259Z,5.93
2017-10-08T17:41:50.808Z,5.77
2017-10-08T17:44:19.139Z,5.30
2017-10-08T17:46:47.220Z,5.67
2017-10-08T17:49:16.591Z,6.40
2017-10-08T17:51:45.087Z,5.53
2017-10-08T17:54:12.655Z,5.80
2017-10-08T17:56:40.188Z,5.47
2017-10-08T17:59:07.743Z,5.40
2017-10-08T18:01:36.216Z,5.83
2017-10-08T18:04:03.747Z,5.63
2017-10-08T18:06:32.075Z,5.90
2017-10-08T18:08:59.607Z,6.00
2017-10-08T18:11:27.140Z,6.30
2017-10-08T18:13:54.716Z,6.33
2017-10-08T18:16:22.314Z,6.97
2017-10-08T18:18:49.851Z,6.10
2017-10-08T18:21:18.114Z,5.70
2017-10-08T18:23:45.663Z,5.47
2017-10-08T18:26:24.403Z,4.93
2017-10-08T18:31:33.619Z,5.00
2017-10-08T18:34:01.985Z,5.43
2017-10-08T18:36:29.552Z,6.50
2017-10-08T18:38:57.111Z,7.53
2017-10-08T18:41:24.803Z,5.97
2017-10-08T18:43:53.120Z,5.20
2017-10-08T18:46:20.677Z,5.62
2017-10-08T18:48:48.361Z,6.17
2017-10-08T18:51:16.448Z,5.17
2017-10-08T18:53:44.199Z,6.10
2017-10-08T18:56:11.729Z,5.63
2017-10-08T18:58:39.255Z,5.90
2017-10-08T19:01:07.743Z,6.10
2017-10-08T19:03:35.383Z,4.90
2017-10-08T19:06:02.944Z,5.77
2017-10-08T19:08:30.499Z,7.72
2017-10-08T19:10:58.060Z,5.60
2017-10-08T19:13:25.599Z,5.43
2017-10-08T19:15:53.221Z,5.33
2017-10-08T19:18:20.758Z,5.30
2017-10-08T19:20:48.283Z,5.37
2017-10-08T19:23:16.489Z,4.78
2017-10-08T19:25:44.959Z,5.37
2017-10-08T19:28:12.588Z,5.25
2017-10-08T19:30:40.138Z,5.40
2017-10-08T19:33:07.663Z,5.33
2017-10-08T19:35:35.267Z,4.90
2017-10-08T19:38:02.942Z,4.73
2017-10-08T19:40:30.499Z,4.65
2017-10-08T19:42:58.035Z,5.40
2017-10-08T19:45:25.603Z,5.43
2017-10-08T19:47:54.817Z,4.70
2017-10-08T19:50:23.341Z,4.80
2017-10-08T19:52:51.696Z,6.10
2017-10-08T19:55:19.357Z,6.80
2017-10-08T19:57:47.692Z,6.50
2017-10-08T20:00:17.410Z,5.20
2017-10-08T20:02:44.959Z,5.67
2017-10-08T20:05:12.648Z,5.40
2017-10-08T20:07:40.206Z,7.07
2017-10-08T20:10:07.790Z,6.17
2017-10-08T20:12:35.328Z,5.70
2017-10-08T20:15:02.934Z,5.87
2017-10-08T20:17:31.234Z,5.95
2017-10-08T20:19:58.760Z,5.50
2017-10-08T20:22:27.107Z,5.30
2017-10-08T20:24:54.631Z,6.23
2017-10-08T20:27:22.591Z,5.10
2017-10-08T20:29:50.155Z,6.53
2017-10-08T20:32:17.887Z,6.27
2017-10-08T20:34:49.621Z,7.10
2017-10-08T20:37:18.331Z,7.20
2017-10-08T20:39:45.925Z,7.93
2017-10-08T20:42:15.335Z,7.30
2017-10-08T20:44:42.950Z,6.27
2017-10-08T20:47:12.407Z,6.75
2017-10-08T20:49:46.444Z,5.83
2017-10-08T20:52:16.405Z,6.37
2017-10-08T20:54:43.939Z,5.50
2017-10-08T20:57:11.476Z,6.37
2017-10-08T20:59:39.093Z,5.57
2017-10-08T21:02:06.665Z,6.10
2017-10-08T21:04:34.214Z,6.37
2017-10-08T21:07:01.799Z,6.37
2017-10-08T21:09:29.472Z,6.43
2017-10-08T21:11:57.002Z,6.13
2017-10-08T21:14:24.558Z,6.17
2017-10-08T21:16:52.258Z,6.23
2017-10-08T21:19:19.812Z,6.18
2017-10-08T21:21:47.446Z,6.20
2017-10-08T21:24:15.581Z,6.03
2017-10-08T21:26:43.110Z,6.47
2017-10-08T21:29:10.963Z,6.80
2017-10-08T21:31:38.495Z,6.45
2017-10-08T21:34:06.095Z,5.40
2017-10-08T21:36:33.641Z,5.73
2017-10-08T21:39:01.180Z,6.50
2017-10-08T21:41:28.716Z,6.00
2017-10-08T21:43:57.036Z,5.90
2017-10-08T21:46:24.568Z,5.90
2017-10-08T21:48:52.091Z,6.03
2017-10-08T21:51:19.716Z,5.62
2017-10-08T21:53:47.243Z,6.17
2017-10-08T21:56:16.255Z,5.43
2017-10-08T21:58:43.823Z,7.00
2017-10-08T22:01:11.355Z,6.00
2017-10-08T22:03:39.647Z,5.40
2017-10-08T22:06:07.195Z,6.40
2017-10-08T22:08:35.495Z,5.70
2017-10-08T22:11:03.019Z,6.20
2017-10-08T22:13:30.957Z,6.50
2017-10-08T22:15:58.490Z,7.03
2017-10-08T22:18:26.024Z,6.17
2017-10-08T22:20:53.583Z,6.68
2017-10-08T22:23:21.882Z,6.50
2017-10-08T22:25:49.466Z,5.78
2017-10-08T22:28:17.047Z,6.03
2017-10-08T22:30:45.250Z,6.10
2017-10-08T22:33:14.476Z,6.43
2017-10-08T22:35:42.055Z,6.20
2017-10-08T22:38:09.583Z,5.93
2017-10-08T22:40:37.120Z,5.97
2017-10-08T22:43:04.671Z,6.27
2017-10-08T22:45:32.191Z,6.67
2017-10-08T22:47:59.721Z,6.07
2017-10-08T22:50:27.283Z,6.50
2017-10-08T22:52:54.819Z,6.10
2017-10-08T22:55:23.115Z,6.40
2017-10-08T22:57:50.992Z,6.80
2017-10-08T23:00:20.457Z,5.80
2017-10-08T23:02:47.978Z,6.47
2017-10-08T23:05:17.264Z,5.97
2017-10-08T23:07:44.786Z,5.90
2017-10-08T23:10:12.311Z,6.57
2017-10-08T23:12:39.868Z,5.90
2017-10-08T23:15:07.403Z,6.60
2017-10-08T23:17:34.959Z,6.07
2017-10-08T23:20:02.540Z,5.93
2017-10-08T23:22:30.083Z,6.57
2017-10-08T23:24:57.649Z,6.70
2017-10-08T23:27:25.213Z,5.63
2017-10-08T23:29:52.751Z,6.70
2017-10-08T23:32:20.708Z,6.32
2017-10-08T23:34:48.303Z,6.03
2017-10-08T23:37:16.383Z,6.43
2017-10-08T23:39:43.911Z,6.00
2017-10-08T23:42:11.504Z,6.32
2017-10-08T23:44:39.039Z,6.50
2017-10-08T23:47:07.330Z,5.67
2017-10-08T23:49:35.666Z,5.30
2017-10-08T23:52:03.199Z,5.67
2017-10-08T23:54:30.731Z,6.23
2017-10-08T23:56:58.291Z,6.20
2017-10-08T23:59:25.823Z,5.40
